Terminal Aerodrome Forecast
Issued by NWS

Home | Current Version | Previous Version | Text Only | Print | Product List | Glossary On
Versions: 1 2 3 4 5 6 7 8 9 10 11 12 13 14 15 16 17 18 19 20 21 22 23 24 25 26 27 28 29 30
087
FTAK31 PANC 142341
TAFAIL
TAF
PAIL 142341Z 1500/1524 VRB05KT P6SM FEW030 SCT060
     FM151000 07014G22KT P6SM FEW005 SCT180
     FM151500 09026G34KT P6SM -SN SCT005 SCT015 OVC030=

USA.gov is the U.S. government's official web portal to all federal, state and local government web resources and services.